sensor_id;sensor_type;location;lat;lon;timestamp;pressure;altitude;pressure_sealevel;temperature;humidity
61014;BME280;46899;47.542;19.082;2023-04-10T00:00:55;101232.66;;;3.64;100.00
61014;BME280;46899;47.542;19.082;2023-04-10T00:03:59;101229.22;;;3.62;100.00
61014;BME280;46899;47.542;19.082;2023-04-10T00:07:02;101224.09;;;3.60;100.00
61014;BME280;46899;47.542;19.082;2023-04-10T00:10:05;101224.13;;;3.66;100.00
61014;BME280;46899;47.542;19.082;2023-04-10T00:13:08;101216.41;;;3.66;100.00
61014;BME280;46899;47.542;19.082;2023-04-10T00:16:10;101216.41;;;3.66;100.00
61014;BME280;46899;47.542;19.082;2023-04-10T00:19:13;101212.97;;;3.70;100.00
61014;BME280;46899;47.542;19.082;2023-04-10T00:22:15;101206.13;;;3.72;100.00
61014;BME280;46899;47.542;19.082;2023-04-10T00:25:18;101205.28;;;3.73;100.00
61014;BME280;46899;47.542;19.082;2023-04-10T00:28:20;101201.88;;;3.76;100.00
61014;BME280;46899;47.542;19.082;2023-04-10T00:31:23;101198.47;;;3.78;100.00
61014;BME280;46899;47.542;19.082;2023-04-10T00:34:26;101201.03;;;3.78;100.00
61014;BME280;46899;47.542;19.082;2023-04-10T00:37:28;101207.03;;;3.77;100.00
61014;BME280;46899;47.542;19.082;2023-04-10T00:40:31;101196.75;;;3.82;100.00
61014;BME280;46899;47.542;19.082;2023-04-10T00:43:33;101199.34;;;3.85;100.00
61014;BME280;46899;47.542;19.082;2023-04-10T00:46:36;101195.94;;;3.86;100.00
61014;BME280;46899;47.542;19.082;2023-04-10T00:49:39;101194.19;;;3.86;100.00
61014;BME280;46899;47.542;19.082;2023-04-10T00:52:47;101195.97;;;3.90;100.00
61014;BME280;46899;47.542;19.082;2023-04-10T00:55:50;101188.25;;;3.93;100.00
61014;BME280;46899;47.542;19.082;2023-04-10T00:58:53;101184.12;;;4.26;100.00
61014;BME280;46899;47.542;19.082;2023-04-10T01:01:55;101187.62;;;4.43;100.00
61014;BME280;46899;47.542;19.082;2023-04-10T01:04:58;101191.09;;;4.57;100.00
61014;BME280;46899;47.542;19.082;2023-04-10T01:11:58;101185.09;;;4.56;100.00
61014;BME280;46899;47.542;19.082;2023-04-10T01:15:05;101186.78;;;4.51;100.00
61014;BME280;46899;47.542;19.082;2023-04-10T01:21:14;101178.19;;;4.55;100.00
61014;BME280;46899;47.542;19.082;2023-04-10T01:24:23;101182.50;;;4.53;100.00
61014;BME280;46899;47.542;19.082;2023-04-10T01:31:09;101181.59;;;4.38;100.00
61014;BME280;46899;47.542;19.082;2023-04-10T01:34:18;101179.87;;;4.41;100.00
61014;BME280;46899;47.542;19.082;2023-04-10T01:37:22;101172.09;;;4.28;100.00
61014;BME280;46899;47.542;19.082;2023-04-10T01:40:26;101177.22;;;4.25;100.00
61014;BME280;46899;47.542;19.082;2023-04-10T01:43:31;101174.66;;;4.19;100.00
61014;BME280;46899;47.542;19.082;2023-04-10T01:46:34;101182.28;;;4.02;100.00
61014;BME280;46899;47.542;19.082;2023-04-10T01:49:38;101182.25;;;3.94;100.00
61014;BME280;46899;47.542;19.082;2023-04-10T01:52:45;101173.59;;;3.80;100.00
61014;BME280;46899;47.542;19.082;2023-04-10T01:55:49;101176.13;;;3.70;100.00
61014;BME280;46899;47.542;19.082;2023-04-10T01:58:53;101176.88;;;3.58;100.00
61014;BME280;46899;47.542;19.082;2023-04-10T02:01:57;101180.28;;;3.54;100.00
61014;BME280;46899;47.542;19.082;2023-04-10T02:05:00;101171.72;;;3.55;100.00
61014;BME280;46899;47.542;19.082;2023-04-10T02:08:04;101177.69;;;3.50;100.00
61014;BME280;46899;47.542;19.082;2023-04-10T02:11:12;101175.13;;;3.51;100.00
61014;BME280;46899;47.542;19.082;2023-04-10T02:14:17;101179.34;;;3.41;100.00
61014;BME280;46899;47.542;19.082;2023-04-10T02:17:22;101178.44;;;3.32;100.00
61014;BME280;46899;47.542;19.082;2023-04-10T02:20:28;101175.75;;;3.21;100.00
61014;BME280;46899;47.542;19.082;2023-04-10T02:23:32;101179.97;;;3.13;100.00
61014;BME280;46899;47.542;19.082;2023-04-10T02:26:47;101183.47;;;3.20;100.00
61014;BME280;46899;47.542;19.082;2023-04-10T02:29:50;101182.59;;;3.19;100.00
61014;BME280;46899;47.542;19.082;2023-04-10T02:32:53;101181.81;;;3.25;100.00
61014;BME280;46899;47.542;19.082;2023-04-10T02:35:56;101171.53;;;3.28;100.00
61014;BME280;46899;47.542;19.082;2023-04-10T02:38:59;101170.69;;;3.29;100.00
61014;BME280;46899;47.542;19.082;2023-04-10T02:42:02;101166.44;;;3.37;100.00
61014;BME280;46899;47.542;19.082;2023-04-10T02:45:04;101166.47;;;3.40;100.00
61014;BME280;46899;47.542;19.082;2023-04-10T02:48:08;101165.59;;;3.38;100.00
61014;BME280;46899;47.542;19.082;2023-04-10T02:51:12;101158.72;;;3.35;100.00
61014;BME280;46899;47.542;19.082;2023-04-10T02:54:16;101158.69;;;3.31;100.00
61014;BME280;46899;47.542;19.082;2023-04-10T02:57:19;101156.94;;;3.25;100.00
61014;BME280;46899;47.542;19.082;2023-04-10T03:00:22;101156.09;;;3.26;100.00
61014;BME280;46899;47.542;19.082;2023-04-10T03:03:27;101150.84;;;3.16;100.00
61014;BME280;46899;47.542;19.082;2023-04-10T03:06:30;101149.09;;;3.09;100.00
61014;BME280;46899;47.542;19.082;2023-04-10T03:09:33;101156.91;;;3.19;100.00
61014;BME280;46899;47.542;19.082;2023-04-10T03:12:35;101153.41;;;3.14;100.00
61014;BME280;46899;47.542;19.082;2023-04-10T03:15:39;101147.31;;;3.00;100.00
61014;BME280;46899;47.542;19.082;2023-04-10T03:18:41;101147.22;;;2.91;100.00
61014;BME280;46899;47.542;19.082;2023-04-10T03:21:44;101153.22;;;2.90;100.00
61014;BME280;46899;47.542;19.082;2023-04-10T03:24:47;101148.13;;;2.96;100.00
61014;BME280;46899;47.542;19.082;2023-04-10T03:27:50;101159.13;;;2.82;100.00
61014;BME280;46899;47.542;19.082;2023-04-10T03:30:52;101160.81;;;2.76;100.00
61014;BME280;46899;47.542;19.082;2023-04-10T03:33:55;101159.94;;;2.76;100.00
61014;BME280;46899;47.542;19.082;2023-04-10T03:36:58;101161.78;;;2.89;100.00
61014;BME280;46899;47.542;19.082;2023-04-10T03:40:05;101160.03;;;2.87;100.00
61014;BME280;46899;47.542;19.082;2023-04-10T03:43:24;101157.50;;;2.90;100.00
61014;BME280;46899;47.542;19.082;2023-04-10T03:46:27;101162.53;;;2.78;100.00
61014;BME280;46899;47.542;19.082;2023-04-10T03:49:30;101157.31;;;2.71;100.00
61014;BME280;46899;47.542;19.082;2023-04-10T03:52:35;101164.94;;;2.64;100.00
61014;BME280;46899;47.542;19.082;2023-04-10T03:55:39;101166.63;;;2.62;100.00
61014;BME280;46899;47.542;19.082;2023-04-10T03:58:43;101170.88;;;2.57;100.00
61014;BME280;46899;47.542;19.082;2023-04-10T04:01:46;101174.22;;;2.48;100.00
61014;BME280;46899;47.542;19.082;2023-04-10T04:04:49;101175.84;;;2.42;100.00
61014;BME280;46899;47.542;19.082;2023-04-10T04:07:52;101176.78;;;2.48;100.00
61014;BME280;46899;47.542;19.082;2023-04-10T04:10:55;101180.16;;;2.44;100.00
61014;BME280;46899;47.542;19.082;2023-04-10T04:13:58;101183.53;;;2.40;100.00
61014;BME280;46899;47.542;19.082;2023-04-10T04:17:02;101179.31;;;2.45;100.00
61014;BME280;46899;47.542;19.082;2023-04-10T04:20:04;101187.00;;;2.42;100.00
61014;BME280;46899;47.542;19.082;2023-04-10T04:23:09;101188.69;;;2.43;100.00
61014;BME280;46899;47.542;19.082;2023-04-10T04:26:11;101181.03;;;2.46;100.00
61014;BME280;46899;47.542;19.082;2023-04-10T04:29:14;101182.78;;;2.49;100.00
61014;BME280;46899;47.542;19.082;2023-04-10T04:32:17;101186.34;;;2.63;100.00
61014;BME280;46899;47.542;19.082;2023-04-10T04:35:25;101186.34;;;2.61;100.00
61014;BME280;46899;47.542;19.082;2023-04-10T04:38:29;101186.41;;;2.67;100.00
61014;BME280;46899;47.542;19.082;2023-04-10T04:41:31;101192.38;;;2.66;100.00
61014;BME280;46899;47.542;19.082;2023-04-10T04:44:34;101191.50;;;2.64;100.00
61014;BME280;46899;47.542;19.082;2023-04-10T04:47:38;101199.37;;;2.81;100.00
61014;BME280;46899;47.542;19.082;2023-04-10T04:50:41;101205.44;;;2.85;100.00
61014;BME280;46899;47.542;19.082;2023-04-10T04:53:45;101214.09;;;2.96;100.00
61014;BME280;46899;47.542;19.082;2023-04-10T04:56:48;101214.06;;;2.93;100.00
61014;BME280;46899;47.542;19.082;2023-04-10T04:59:51;101206.44;;;3.00;100.00
61014;BME280;46899;47.542;19.082;2023-04-10T05:02:54;101209.13;;;3.14;100.00
61014;BME280;46899;47.542;19.082;2023-04-10T05:06:01;101209.34;;;3.41;100.00
61014;BME280;46899;47.542;19.082;2023-04-10T05:09:06;101203.37;;;3.43;100.00
61014;BME280;46899;47.542;19.082;2023-04-10T05:12:13;101212.91;;;3.57;100.00
61014;BME280;46899;47.542;19.082;2023-04-10T05:15:16;101213.00;;;3.72;100.00
61014;BME280;46899;47.542;19.082;2023-04-10T05:18:19;101216.53;;;3.87;100.00
61014;BME280;46899;47.542;19.082;2023-04-10T05:21:28;101221.78;;;4.05;100.00
61014;BME280;46899;47.542;19.082;2023-04-10T05:24:33;101221.03;;;4.25;100.00
61014;BME280;46899;47.542;19.082;2023-04-10T05:27:36;101225.38;;;4.38;100.00
61014;BME280;46899;47.542;19.082;2023-04-10T05:30:39;101226.31;;;4.52;100.00
61014;BME280;46899;47.542;19.082;2023-04-10T05:33:43;101228.09;;;4.78;100.00
61014;BME280;46899;47.542;19.082;2023-04-10T05:36:45;101223.84;;;4.90;100.00
61014;BME280;46899;47.542;19.082;2023-04-10T05:39:49;101219.53;;;5.11;100.00
61014;BME280;46899;47.542;19.082;2023-04-10T05:42:52;101221.28;;;5.29;100.00
61014;BME280;46899;47.542;19.082;2023-04-10T05:45:55;101230.75;;;5.51;100.00
61014;BME280;46899;47.542;19.082;2023-04-10T05:48:59;101225.53;;;6.01;100.00
61014;BME280;46899;47.542;19.082;2023-04-10T05:52:03;101219.28;;;6.64;100.00
61014;BME280;46899;47.542;19.082;2023-04-10T05:55:06;101231.75;;;7.39;100.00
61014;BME280;46899;47.542;19.082;2023-04-10T05:58:10;101229.38;;;8.06;97.96
61014;BME280;46899;47.542;19.082;2023-04-10T06:01:13;101224.47;;;8.58;94.00
61014;BME280;46899;47.542;19.082;2023-04-10T06:04:16;101231.75;;;8.94;90.02
61014;BME280;46899;47.542;19.082;2023-04-10T06:07:20;101222.53;;;9.82;85.22
61014;BME280;46899;47.542;19.082;2023-04-10T06:10:22;101217.91;;;10.83;76.98
61014;BME280;46899;47.542;19.082;2023-04-10T06:13:25;101225.38;;;13.23;66.70
61014;BME280;46899;47.542;19.082;2023-04-10T06:16:29;101225.38;;;15.37;55.71
61014;BME280;46899;47.542;19.082;2023-04-10T06:19:32;101226.84;;;17.20;48.47
61014;BME280;46899;47.542;19.082;2023-04-10T06:22:35;101230.09;;;18.29;45.43
61014;BME280;46899;47.542;19.082;2023-04-10T06:25:37;101229.13;;;18.47;42.99
61014;BME280;46899;47.542;19.082;2023-04-10T06:28:40;101225.22;;;17.17;47.94
61014;BME280;46899;47.542;19.082;2023-04-10T06:31:44;101229.47;;;18.07;45.41
61014;BME280;46899;47.542;19.082;2023-04-10T06:34:47;101226.25;;;19.61;40.85
61014;BME280;46899;47.542;19.082;2023-04-10T06:37:50;101224.06;;;19.83;39.37
61014;BME280;46899;47.542;19.082;2023-04-10T06:40:53;101223.56;;;17.50;43.85
61014;BME280;46899;47.542;19.082;2023-04-10T06:43:56;101226.78;;;18.58;43.49
61014;BME280;46899;47.542;19.082;2023-04-10T06:46:59;101219.87;;;19.79;40.07
61014;BME280;46899;47.542;19.082;2023-04-10T06:50:01;101220.78;;;20.08;38.82
61014;BME280;46899;47.542;19.082;2023-04-10T06:53:04;101211.97;;;20.37;39.40
61014;BME280;46899;47.542;19.082;2023-04-10T06:56:06;101219.22;;;22.71;34.21
61014;BME280;46899;47.542;19.082;2023-04-10T06:59:09;101205.91;;;24.79;31.26
61014;BME280;46899;47.542;19.082;2023-04-10T07:02:12;101201.19;;;24.83;29.56
61014;BME280;46899;47.542;19.082;2023-04-10T07:05:14;101193.94;;;23.38;31.92
61014;BME280;46899;47.542;19.082;2023-04-10T07:08:17;101198.63;;;25.67;27.95
61014;BME280;46899;47.542;19.082;2023-04-10T07:11:20;101201.53;;;25.64;28.13
61014;BME280;46899;47.542;19.082;2023-04-10T07:14:22;101207.13;;;25.81;28.03
61014;BME280;46899;47.542;19.082;2023-04-10T07:17:25;101200.56;;;27.16;26.36
61014;BME280;46899;47.542;19.082;2023-04-10T07:20:28;101202.19;;;28.69;23.78
61014;BME280;46899;47.542;19.082;2023-04-10T07:23:31;101203.88;;;29.67;22.39
61014;BME280;46899;47.542;19.082;2023-04-10T07:26:33;101189.53;;;29.59;21.50
61014;BME280;46899;47.542;19.082;2023-04-10T07:29:36;101183.66;;;29.55;22.48
61014;BME280;46899;47.542;19.082;2023-04-10T07:32:38;101190.13;;;29.70;22.71
61014;BME280;46899;47.542;19.082;2023-04-10T07:35:43;101183.91;;;30.39;21.07
61014;BME280;46899;47.542;19.082;2023-04-10T07:38:46;101180.81;;;29.57;21.31
61014;BME280;46899;47.542;19.082;2023-04-10T07:41:49;101178.38;;;29.46;22.25
61014;BME280;46899;47.542;19.082;2023-04-10T07:44:51;101173.22;;;29.70;21.33
61014;BME280;46899;47.542;19.082;2023-04-10T07:47:54;101167.31;;;27.95;22.65
61014;BME280;46899;47.542;19.082;2023-04-10T07:50:57;101168.19;;;29.32;20.89
61014;BME280;46899;47.542;19.082;2023-04-10T07:54:01;101174.50;;;30.35;19.79
61014;BME280;46899;47.542;19.082;2023-04-10T07:57:04;101172.56;;;28.70;21.17
61014;BME280;46899;47.542;19.082;2023-04-10T08:00:06;101155.53;;;26.92;24.14
61014;BME280;46899;47.542;19.082;2023-04-10T08:03:14;101155.94;;;24.49;27.22
61014;BME280;46899;47.542;19.082;2023-04-10T08:06:17;101151.09;;;23.88;28.60
61014;BME280;46899;47.542;19.082;2023-04-10T08:09:19;101150.09;;;24.00;27.16
61014;BME280;46899;47.542;19.082;2023-04-10T08:12:22;101146.72;;;23.98;26.24
61014;BME280;46899;47.542;19.082;2023-04-10T08:15:25;101152.59;;;22.50;29.24
61014;BME280;46899;47.542;19.082;2023-04-10T08:18:27;101151.50;;;21.39;30.50
61014;BME280;46899;47.542;19.082;2023-04-10T08:21:30;101146.28;;;20.98;30.70
61014;BME280;46899;47.542;19.082;2023-04-10T08:24:35;101149.75;;;20.99;30.79
61014;BME280;46899;47.542;19.082;2023-04-10T08:27:38;101147.53;;;20.93;31.78
61014;BME280;46899;47.542;19.082;2023-04-10T08:30:41;101138.75;;;20.37;31.82
61014;BME280;46899;47.542;19.082;2023-04-10T08:33:43;101135.81;;;19.86;32.62
61014;BME280;46899;47.542;19.082;2023-04-10T08:36:46;101140.03;;;19.60;32.36
61014;BME280;46899;47.542;19.082;2023-04-10T08:39:48;101134.38;;;19.06;33.54
61014;BME280;46899;47.542;19.082;2023-04-10T08:42:51;101130.50;;;18.67;35.42
61014;BME280;46899;47.542;19.082;2023-04-10T08:45:53;101127.09;;;19.26;33.11
61014;BME280;46899;47.542;19.082;2023-04-10T08:49:00;101128.25;;;19.06;33.84
61014;BME280;46899;47.542;19.082;2023-04-10T08:52:02;101129.66;;;18.66;34.21
61014;BME280;46899;47.542;19.082;2023-04-10T08:55:08;101127.94;;;19.42;33.56
61014;BME280;46899;47.542;19.082;2023-04-10T08:58:13;101118.37;;;19.83;30.63
61014;BME280;46899;47.542;19.082;2023-04-10T09:01:17;101120.75;;;19.88;30.35
61014;BME280;46899;47.542;19.082;2023-04-10T09:04:21;101118.37;;;18.94;33.97
61014;BME280;46899;47.542;19.082;2023-04-10T09:07:24;101115.37;;;18.55;33.14
61014;BME280;46899;47.542;19.082;2023-04-10T09:10:27;101110.03;;;17.92;33.55
61014;BME280;46899;47.542;19.082;2023-04-10T09:16:39;101106.84;;;17.86;33.33
61014;BME280;46899;47.542;19.082;2023-04-10T09:19:42;101107.38;;;17.92;32.90
61014;BME280;46899;47.542;19.082;2023-04-10T09:22:45;101106.94;;;17.84;32.77
61014;BME280;46899;47.542;19.082;2023-04-10T09:25:48;101098.53;;;18.41;31.56
61014;BME280;46899;47.542;19.082;2023-04-10T09:31:58;101105.47;;;18.42;32.46
61014;BME280;46899;47.542;19.082;2023-04-10T09:35:00;101104.63;;;18.11;31.67
61014;BME280;46899;47.542;19.082;2023-04-10T09:38:13;101103.00;;;17.75;33.94
61014;BME280;46899;47.542;19.082;2023-04-10T09:41:16;101094.63;;;17.85;32.88
61014;BME280;46899;47.542;19.082;2023-04-10T09:44:30;101086.72;;;17.85;32.86
61014;BME280;46899;47.542;19.082;2023-04-10T09:47:32;101085.66;;;17.71;33.61
61014;BME280;46899;47.542;19.082;2023-04-10T09:50:36;101091.88;;;17.53;33.36
61014;BME280;46899;47.542;19.082;2023-04-10T09:53:47;101092.94;;;17.66;33.88
61014;BME280;46899;47.542;19.082;2023-04-10T09:56:49;101073.34;;;18.36;32.77
61014;BME280;46899;47.542;19.082;2023-04-10T09:59:56;101075.09;;;18.04;33.87
61014;BME280;46899;47.542;19.082;2023-04-10T10:02:59;101081.25;;;17.88;34.35
61014;BME280;46899;47.542;19.082;2023-04-10T10:06:06;101077.03;;;17.85;33.78
61014;BME280;46899;47.542;19.082;2023-04-10T10:09:08;101072.22;;;17.60;34.38
61014;BME280;46899;47.542;19.082;2023-04-10T10:12:12;101071.53;;;17.57;34.47
61014;BME280;46899;47.542;19.082;2023-04-10T10:21:33;101061.63;;;17.10;34.77
61014;BME280;46899;47.542;19.082;2023-04-10T10:24:37;101060.47;;;16.63;35.76
61014;BME280;46899;47.542;19.082;2023-04-10T10:27:41;101062.28;;;16.80;36.48
61014;BME280;46899;47.542;19.082;2023-04-10T10:30:44;101059.19;;;16.72;36.34
61014;BME280;46899;47.542;19.082;2023-04-10T10:33:46;101052.41;;;16.30;36.25
61014;BME280;46899;47.542;19.082;2023-04-10T10:36:49;101045.31;;;16.14;37.46
61014;BME280;46899;47.542;19.082;2023-04-10T10:39:55;101049.56;;;15.98;38.67
61014;BME280;46899;47.542;19.082;2023-04-10T10:43:14;101052.41;;;15.93;38.27
61014;BME280;46899;47.542;19.082;2023-04-10T10:49:49;101045.06;;;16.20;37.53
61014;BME280;46899;47.542;19.082;2023-04-10T10:55:48;101046.72;;;16.21;38.00
61014;BME280;46899;47.542;19.082;2023-04-10T10:58:59;101043.47;;;15.97;38.28
61014;BME280;46899;47.542;19.082;2023-04-10T11:02:11;101043.91;;;15.88;39.08
61014;BME280;46899;47.542;19.082;2023-04-10T11:08:36;101047.47;;;15.87;40.07
61014;BME280;46899;47.542;19.082;2023-04-10T11:11:57;101053.09;;;15.78;40.22
61014;BME280;46899;47.542;19.082;2023-04-10T11:15:02;101064.22;;;15.64;41.50
61014;BME280;46899;47.542;19.082;2023-04-10T11:18:06;101048.19;;;15.52;42.31
61014;BME280;46899;47.542;19.082;2023-04-10T11:21:12;101048.44;;;15.46;42.46
61014;BME280;46899;47.542;19.082;2023-04-10T11:24:14;101049.59;;;15.39;42.74
61014;BME280;46899;47.542;19.082;2023-04-10T11:27:36;101045.16;;;15.21;43.01
61014;BME280;46899;47.542;19.082;2023-04-10T11:30:39;101038.31;;;15.37;42.51
61014;BME280;46899;47.542;19.082;2023-04-10T11:33:42;101032.88;;;15.41;42.76
61014;BME280;46899;47.542;19.082;2023-04-10T11:36:44;101037.34;;;15.78;42.32
61014;BME280;46899;47.542;19.082;2023-04-10T11:39:48;101040.63;;;15.83;42.65
61014;BME280;46899;47.542;19.082;2023-04-10T11:42:50;101043.63;;;15.94;42.37
61014;BME280;46899;47.542;19.082;2023-04-10T11:45:59;101044.22;;;15.62;42.08
61014;BME280;46899;47.542;19.082;2023-04-10T11:49:03;101048.88;;;15.76;43.49
61014;BME280;46899;47.542;19.082;2023-04-10T11:52:06;101050.13;;;16.04;42.76
61014;BME280;46899;47.542;19.082;2023-04-10T11:55:08;101049.94;;;15.90;43.66
61014;BME280;46899;47.542;19.082;2023-04-10T11:58:27;101036.75;;;15.53;44.15
61014;BME280;46899;47.542;19.082;2023-04-10T12:01:29;101042.00;;;15.33;47.60
61014;BME280;46899;47.542;19.082;2023-04-10T12:04:32;101035.81;;;15.34;47.35
61014;BME280;46899;47.542;19.082;2023-04-10T12:07:35;101029.03;;;15.30;46.63
61014;BME280;46899;47.542;19.082;2023-04-10T12:10:44;101028.19;;;15.49;48.57
61014;BME280;46899;47.542;19.082;2023-04-10T12:13:54;101027.03;;;15.55;46.74
61014;BME280;46899;47.542;19.082;2023-04-10T12:16:57;101024.44;;;15.15;48.32
61014;BME280;46899;47.542;19.082;2023-04-10T12:20:01;101029.94;;;15.08;47.31
61014;BME280;46899;47.542;19.082;2023-04-10T12:23:04;101020.16;;;15.12;47.91
61014;BME280;46899;47.542;19.082;2023-04-10T12:26:16;101010.34;;;15.17;48.37
61014;BME280;46899;47.542;19.082;2023-04-10T12:29:19;101004.75;;;15.25;46.25
61014;BME280;46899;47.542;19.082;2023-04-10T12:32:28;100998.84;;;15.40;48.56
61014;BME280;46899;47.542;19.082;2023-04-10T12:35:40;100988.66;;;15.91;46.83
61014;BME280;46899;47.542;19.082;2023-04-10T12:38:46;100981.12;;;16.38;47.60
61014;BME280;46899;47.542;19.082;2023-04-10T12:41:49;100972.69;;;15.58;45.28
61014;BME280;46899;47.542;19.082;2023-04-10T12:44:54;100964.16;;;15.33;47.08
61014;BME280;46899;47.542;19.082;2023-04-10T12:47:57;100963.31;;;15.53;46.18
61014;BME280;46899;47.542;19.082;2023-04-10T12:51:00;100957.47;;;16.02;45.01
61014;BME280;46899;47.542;19.082;2023-04-10T12:54:02;100950.56;;;16.18;45.01
61014;BME280;46899;47.542;19.082;2023-04-10T12:57:05;100952.19;;;16.21;45.19
61014;BME280;46899;47.542;19.082;2023-04-10T13:00:09;100947.62;;;16.07;45.59
61014;BME280;46899;47.542;19.082;2023-04-10T13:03:13;100936.62;;;15.99;44.21
61014;BME280;46899;47.542;19.082;2023-04-10T13:06:16;100935.00;;;16.50;43.71
61014;BME280;46899;47.542;19.082;2023-04-10T13:09:18;100935.25;;;17.29;42.41
61014;BME280;46899;47.542;19.082;2023-04-10T13:12:21;100923.06;;;17.28;41.69
61014;BME280;46899;47.542;19.082;2023-04-10T13:15:24;100924.22;;;17.23;41.28
61014;BME280;46899;47.542;19.082;2023-04-10T13:18:27;100913.00;;;16.86;41.97
61014;BME280;46899;47.542;19.082;2023-04-10T13:21:29;100910.44;;;16.51;43.08
61014;BME280;46899;47.542;19.082;2023-04-10T13:24:32;100909.19;;;16.23;43.76
61014;BME280;46899;47.542;19.082;2023-04-10T13:27:35;100900.94;;;16.31;43.44
61014;BME280;46899;47.542;19.082;2023-04-10T13:30:38;100901.31;;;16.23;43.85
61014;BME280;46899;47.542;19.082;2023-04-10T13:33:44;100897.97;;;16.03;44.25
61014;BME280;46899;47.542;19.082;2023-04-10T13:36:49;100894.50;;;16.19;44.03
61014;BME280;46899;47.542;19.082;2023-04-10T13:39:52;100887.63;;;16.17;43.99
61014;BME280;46899;47.542;19.082;2023-04-10T13:42:54;100886.28;;;15.91;44.21
61014;BME280;46899;47.542;19.082;2023-04-10T13:45:57;100875.28;;;15.66;44.40
61014;BME280;46899;47.542;19.082;2023-04-10T13:49:00;100871.63;;;15.87;43.60
61014;BME280;46899;47.542;19.082;2023-04-10T13:52:02;100865.44;;;15.88;43.60
61014;BME280;46899;47.542;19.082;2023-04-10T13:55:05;100858.13;;;16.12;43.32
61014;BME280;46899;47.542;19.082;2023-04-10T13:58:11;100851.34;;;16.42;43.45
61014;BME280;46899;47.542;19.082;2023-04-10T14:01:14;100849.25;;;16.31;42.85
61014;BME280;46899;47.542;19.082;2023-04-10T14:04:17;100843.84;;;16.17;41.47
61014;BME280;46899;47.542;19.082;2023-04-10T14:07:20;100835.03;;;16.01;42.81
61014;BME280;46899;47.542;19.082;2023-04-10T14:10:23;100828.25;;;16.14;43.31
61014;BME280;46899;47.542;19.082;2023-04-10T14:13:25;100822.22;;;16.12;42.34
61014;BME280;46899;47.542;19.082;2023-04-10T14:16:28;100821.69;;;16.06;42.00
61014;BME280;46899;47.542;19.082;2023-04-10T14:19:32;100818.22;;;16.05;41.94
61014;BME280;46899;47.542;19.082;2023-04-10T14:22:36;100810.09;;;16.10;42.47
61014;BME280;46899;47.542;19.082;2023-04-10T14:25:38;100803.00;;;16.29;41.78
61014;BME280;46899;47.542;19.082;2023-04-10T14:28:41;100800.41;;;16.44;42.27
61014;BME280;46899;47.542;19.082;2023-04-10T14:31:43;100787.84;;;16.51;41.59
61014;BME280;46899;47.542;19.082;2023-04-10T14:34:59;100795.03;;;16.30;42.36
61014;BME280;46899;47.542;19.082;2023-04-10T14:38:04;100777.59;;;16.29;42.29
61014;BME280;46899;47.542;19.082;2023-04-10T14:41:07;100778.22;;;16.17;41.34
61014;BME280;46899;47.542;19.082;2023-04-10T14:44:09;100782.84;;;16.12;42.04
61014;BME280;46899;47.542;19.082;2023-04-10T14:47:12;100771.25;;;16.16;41.77
61014;BME280;46899;47.542;19.082;2023-04-10T14:50:15;100769.63;;;16.14;41.40
61014;BME280;46899;47.542;19.082;2023-04-10T14:53:18;100766.72;;;16.03;41.35
61014;BME280;46899;47.542;19.082;2023-04-10T14:56:22;100761.06;;;16.10;42.01
61014;BME280;46899;47.542;19.082;2023-04-10T14:59:25;100756.88;;;16.06;41.55
61014;BME280;46899;47.542;19.082;2023-04-10T15:02:28;100756.75;;;16.09;41.65
61014;BME280;46899;47.542;19.082;2023-04-10T15:05:32;100747.34;;;16.05;41.67
61014;BME280;46899;47.542;19.082;2023-04-10T15:08:35;100748.72;;;16.12;41.51
61014;BME280;46899;47.542;19.082;2023-04-10T15:11:38;100733.56;;;16.17;41.43
61014;BME280;46899;47.542;19.082;2023-04-10T15:14:40;100738.50;;;16.23;41.42
61014;BME280;46899;47.542;19.082;2023-04-10T15:17:43;100736.19;;;16.17;40.98
61014;BME280;46899;47.542;19.082;2023-04-10T15:20:45;100730.94;;;16.17;41.35
61014;BME280;46899;47.542;19.082;2023-04-10T15:23:48;100725.00;;;16.14;41.84
61014;BME280;46899;47.542;19.082;2023-04-10T15:26:51;100725.37;;;16.06;42.05
61014;BME280;46899;47.542;19.082;2023-04-10T15:29:55;100714.97;;;16.05;42.26
61014;BME280;46899;47.542;19.082;2023-04-10T15:32:57;100714.87;;;16.06;42.40
61014;BME280;46899;47.542;19.082;2023-04-10T15:36:00;100713.16;;;15.90;42.06
61014;BME280;46899;47.542;19.082;2023-04-10T15:39:02;100716.44;;;15.93;42.57
61014;BME280;46899;47.542;19.082;2023-04-10T15:42:05;100710.16;;;15.80;42.42
61014;BME280;46899;47.542;19.082;2023-04-10T15:45:09;100714.53;;;15.80;42.77
61014;BME280;46899;47.542;19.082;2023-04-10T15:48:12;100715.37;;;15.80;42.60
61014;BME280;46899;47.542;19.082;2023-04-10T15:51:14;100711.81;;;15.81;42.64
61014;BME280;46899;47.542;19.082;2023-04-10T15:54:17;100711.69;;;15.84;42.16
61014;BME280;46899;47.542;19.082;2023-04-10T15:57:20;100709.28;;;15.80;42.36
61014;BME280;46899;47.542;19.082;2023-04-10T16:00:22;100702.84;;;15.85;42.48
61014;BME280;46899;47.542;19.082;2023-04-10T16:03:25;100695.94;;;16.01;42.14
61014;BME280;46899;47.542;19.082;2023-04-10T16:06:31;100688.34;;;15.95;41.37
61014;BME280;46899;47.542;19.082;2023-04-10T16:09:34;100694.50;;;16.11;41.59
61014;BME280;46899;47.542;19.082;2023-04-10T16:12:37;100681.97;;;16.16;42.76
61014;BME280;46899;47.542;19.082;2023-04-10T16:15:40;100682.75;;;16.18;41.79
61014;BME280;46899;47.542;19.082;2023-04-10T16:18:42;100689.62;;;16.21;41.72
61014;BME280;46899;47.542;19.082;2023-04-10T16:21:48;100690.09;;;16.12;41.86